Time;durP1;ratioP1;P1;durP2;ratioP2;P2;SDS_P1;SDS_P2;PMS_P1;PMS_P2;Temp;Humidity;BMP_temperature;BMP_pressure;BME280_temperature;BME280_humidity;BME280_pressure;Samples;Min_cycle;Max_cycle;Signal;HPM_P1;HPM_P2
2023/11/02 00:01:35;;;;;;;16.50;2.15;;;10.40;99.90;;;;;;6209273;28;20047;-92
2023/11/02 00:04:37;;;;;;;16.10;1.85;;;10.50;99.90;;;;;;6232773;28;20506;-93
2023/11/02 00:07:39;;;;;;;11.40;1.98;;;10.50;99.90;;;;;;6186789;28;20063;-92
2023/11/02 00:10:40;;;;;;;13.73;1.95;;;10.60;99.90;;;;;;6224192;28;20077;-91
2023/11/02 00:13:42;;;;;;;13.88;2.55;;;10.60;99.90;;;;;;6203795;28;20046;-86
2023/11/02 00:16:45;;;;;;;11.00;1.30;;;10.70;99.90;;;;;;6228108;28;20061;-90
2023/11/02 00:19:46;;;;;;;10.85;1.50;;;10.70;99.90;;;;;;6201036;28;20490;-90
2023/11/02 00:22:48;;;;;;;8.57;1.58;;;10.80;99.90;;;;;;6224021;28;20053;-88
2023/11/02 00:25:50;;;;;;;6.28;1.30;;;10.80;99.90;;;;;;6201657;28;20042;-86
2023/11/02 00:28:58;;;;;;;7.70;1.50;;;10.80;99.90;;;;;;6215054;28;20054;-89
2023/11/02 00:31:59;;;;;;;10.43;1.83;;;10.80;99.90;;;;;;6224283;28;20057;-89
2023/11/02 00:35:01;;;;;;;9.35;1.80;;;10.90;99.90;;;;;;6188633;28;20499;-92
2023/11/02 00:38:03;;;;;;;9.90;1.90;;;11.00;99.90;;;;;;6200736;28;20058;-90
2023/11/02 00:41:04;;;;;;;11.65;1.60;;;11.00;99.90;;;;;;6219263;28;20054;-90
2023/11/02 00:44:06;;;;;;;12.35;1.77;;;11.10;99.90;;;;;;6211797;28;20054;-87
2023/11/02 00:47:08;;;;;;;8.98;1.40;;;11.10;99.90;;;;;;6224986;28;20413;-90
2023/11/02 00:50:09;;;;;;;9.80;1.30;;;11.10;99.90;;;;;;6202307;28;20057;-91
2023/11/02 00:53:11;;;;;;;5.82;1.20;;;11.10;99.90;;;;;;6226761;28;20806;-89
2023/11/02 00:56:13;;;;;;;11.07;1.20;;;11.10;99.90;;;;;;6201407;28;20482;-92
2023/11/02 00:59:15;;;;;;;7.97;1.13;;;11.20;99.90;;;;;;6210158;28;20069;-88
2023/11/02 01:02:18;;;;;;;17.35;2.38;;;11.20;99.90;;;;;;6213555;28;20426;-87
2023/11/02 01:05:19;;;;;;;12.63;1.95;;;11.30;99.90;;;;;;6225566;28;20490;-89
2023/11/02 01:08:21;;;;;;;9.15;1.40;;;11.20;99.90;;;;;;6199982;28;20058;-88
2023/11/02 01:11:23;;;;;;;6.53;1.38;;;11.20;99.90;;;;;;6208969;28;20065;-90
2023/11/02 01:14:25;;;;;;;9.10;1.42;;;11.20;99.90;;;;;;6202524;28;20053;-89
2023/11/02 01:17:26;;;;;;;8.10;1.25;;;11.20;99.90;;;;;;6223055;28;20050;-89
2023/11/02 01:20:28;;;;;;;10.02;1.20;;;11.20;99.90;;;;;;6200178;28;20192;-89
2023/11/02 01:23:30;;;;;;;12.82;2.25;;;11.20;99.90;;;;;;6225807;28;20506;-91
2023/11/02 01:26:31;;;;;;;5.88;1.10;;;11.10;99.90;;;;;;6202185;28;20066;-91
2023/11/02 01:29:34;;;;;;;8.25;1.20;;;11.10;99.90;;;;;;6208259;28;20054;-91
2023/11/02 01:32:36;;;;;;;11.85;1.50;;;11.10;99.90;;;;;;6225969;28;20062;-88
2023/11/02 01:35:37;;;;;;;9.32;1.65;;;11.20;99.90;;;;;;6201760;28;20508;-89
2023/11/02 01:38:41;;;;;;;8.35;1.73;;;11.10;99.90;;;;;;6213012;28;20061;-92
2023/11/02 01:41:43;;;;;;;9.52;1.65;;;11.20;99.90;;;;;;6223880;28;20065;-91
2023/11/02 01:44:45;;;;;;;7.50;1.23;;;11.20;99.90;;;;;;6214948;28;20053;-90
2023/11/02 01:47:46;;;;;;;11.38;1.55;;;11.30;99.90;;;;;;6192102;28;20057;-86
2023/11/02 01:50:48;;;;;;;14.77;2.03;;;11.30;99.90;;;;;;6208235;28;20050;-86
2023/11/02 01:53:50;;;;;;;7.35;1.20;;;11.30;99.90;;;;;;6223192;28;20490;-90
2023/11/02 01:56:52;;;;;;;10.35;1.58;;;11.30;99.90;;;;;;6197966;28;20117;-91
2023/11/02 01:59:53;;;;;;;11.60;1.48;;;11.30;99.90;;;;;;6221328;28;20057;-89
2023/11/02 02:02:55;;;;;;;9.13;1.90;;;11.30;99.90;;;;;;6186758;28;20078;-87
2023/11/02 02:05:57;;;;;;;13.73;1.83;;;11.30;99.90;;;;;;6220064;28;20057;-89
2023/11/02 02:08:58;;;;;;;18.73;2.88;;;11.40;99.90;;;;;;6196429;28;20517;-91
2023/11/02 02:12:01;;;;;;;12.65;2.28;;;11.40;99.90;;;;;;6216199;28;20422;-89
2023/11/02 02:15:03;;;;;;;12.40;2.08;;;11.40;99.90;;;;;;6196720;28;20061;-85
2023/11/02 02:18:04;;;;;;;16.48;2.22;;;11.40;99.90;;;;;;6223450;28;20054;-90
2023/11/02 02:21:06;;;;;;;16.48;1.98;;;11.40;99.90;;;;;;6199115;28;20050;-89
2023/11/02 02:24:08;;;;;;;12.27;2.53;;;11.40;99.90;;;;;;6222510;28;20111;-89
2023/11/02 02:27:09;;;;;;;13.10;1.90;;;11.40;99.90;;;;;;6196705;28;20051;-86
2023/11/02 02:30:11;;;;;;;12.75;2.03;;;11.50;99.90;;;;;;6220246;28;20489;-85
2023/11/02 02:33:13;;;;;;;10.02;2.10;;;11.50;99.90;;;;;;6199148;28;20100;-90
2023/11/02 02:36:15;;;;;;;13.27;2.30;;;11.50;99.90;;;;;;6223447;28;20153;-91
2023/11/02 02:39:17;;;;;;;7.78;1.42;;;11.50;99.90;;;;;;6199960;28;20137;-91
2023/11/02 02:42:19;;;;;;;14.32;1.80;;;11.50;99.90;;;;;;6222677;28;20050;-89
2023/11/02 02:45:21;;;;;;;11.23;1.67;;;11.50;99.90;;;;;;6202462;28;20057;-91
2023/11/02 02:48:23;;;;;;;12.73;1.80;;;11.60;99.90;;;;;;6227999;28;20054;-91
2023/11/02 02:51:25;;;;;;;12.02;1.88;;;11.50;99.90;;;;;;6202985;28;20105;-88
2023/11/02 02:54:26;;;;;;;15.52;2.13;;;11.60;99.90;;;;;;6227097;28;20050;-87
2023/11/02 02:57:31;;;;;;;13.65;1.38;;;11.60;99.90;;;;;;6201266;28;20137;-88
2023/11/02 03:00:34;;;;;;;10.55;1.08;;;11.40;99.90;;;;;;6202865;28;20058;-87
2023/11/02 03:03:36;;;;;;;3.47;0.85;;;11.10;99.90;;;;;;6223676;28;20193;-87
2023/11/02 03:06:37;;;;;;;3.38;0.75;;;10.40;98.20;;;;;;6199842;28;20086;-87
2023/11/02 03:09:39;;;;;;;6.80;0.90;;;10.10;99.70;;;;;;6198418;28;20050;-86
2023/11/02 03:12:41;;;;;;;5.47;0.95;;;9.80;99.90;;;;;;6203208;28;20051;-87
2023/11/02 03:15:42;;;;;;;5.70;1.00;;;9.70;99.90;;;;;;6220886;28;20138;-85
2023/11/02 03:18:44;;;;;;;6.82;1.00;;;9.70;99.90;;;;;;6200102;28;20054;-86
2023/11/02 03:21:46;;;;;;;5.22;1.00;;;9.70;99.90;;;;;;6224172;28;20192;-89
2023/11/02 03:24:47;;;;;;;7.47;1.40;;;9.70;99.90;;;;;;6201310;28;20054;-86
2023/11/02 03:27:49;;;;;;;4.85;1.13;;;9.70;99.90;;;;;;6179932;28;20062;-87
2023/11/02 03:30:51;;;;;;;7.95;1.60;;;9.70;99.90;;;;;;6224514;28;20062;-86
2023/11/02 03:33:53;;;;;;;7.28;1.30;;;9.80;99.90;;;;;;6178390;28;20058;-89
2023/11/02 03:36:54;;;;;;;9.73;1.70;;;9.90;99.90;;;;;;6225533;28;20049;-88
2023/11/02 03:39:56;;;;;;;11.65;1.52;;;10.00;99.90;;;;;;6204640;28;20458;-88
2023/11/02 03:42:58;;;;;;;7.13;1.38;;;10.10;99.90;;;;;;6224710;28;20046;-90
2023/11/02 03:45:59;;;;;;;8.48;1.38;;;10.20;99.90;;;;;;6200120;28;20058;-88
2023/11/02 03:49:01;;;;;;;6.55;1.25;;;10.20;99.90;;;;;;6225401;28;20129;-88
2023/11/02 03:52:03;;;;;;;6.47;1.00;;;10.30;98.50;;;;;;6199797;28;20415;-88
2023/11/02 03:55:05;;;;;;;5.20;1.10;;;10.30;97.80;;;;;;6222965;28;20049;-86
2023/11/02 03:58:08;;;;;;;4.55;0.80;;;10.20;98.40;;;;;;6201951;28;20054;-88
2023/11/02 04:01:09;;;;;;;4.40;0.82;;;10.20;99.40;;;;;;6223838;28;20406;-88
2023/11/02 04:04:11;;;;;;;6.28;0.90;;;10.00;99.80;;;;;;6197971;28;20063;-86
2023/11/02 04:07:13;;;;;;;6.78;0.90;;;9.90;99.90;;;;;;6214856;28;20435;-88
2023/11/02 04:10:14;;;;;;;6.63;1.00;;;9.80;99.90;;;;;;6239189;28;20749;-88
2023/11/02 04:13:16;;;;;;;7.25;1.02;;;9.80;99.90;;;;;;6218696;28;20125;-88
2023/11/02 04:16:18;;;;;;;3.92;0.70;;;9.70;99.90;;;;;;6216933;28;20051;-87
2023/11/02 04:19:19;;;;;;;4.97;0.90;;;9.70;99.90;;;;;;6234142;28;20065;-89
2023/11/02 04:22:21;;;;;;;5.95;1.10;;;9.70;99.90;;;;;;6199706;28;20125;-86
2023/11/02 04:25:23;;;;;;;5.50;1.00;;;9.60;99.90;;;;;;6239901;28;20053;-89
2023/11/02 04:28:24;;;;;;;6.60;1.15;;;9.60;99.90;;;;;;6203993;28;20497;-88
2023/11/02 04:31:26;;;;;;;7.22;1.20;;;9.60;99.90;;;;;;6218778;28;20403;-90
2023/11/02 04:34:28;;;;;;;7.43;1.05;;;9.60;99.90;;;;;;6241072;28;20050;-87
2023/11/02 04:37:30;;;;;;;7.78;1.35;;;9.60;99.90;;;;;;6202645;28;20082;-88
2023/11/02 04:40:32;;;;;;;7.38;1.35;;;9.70;99.90;;;;;;6223246;28;20062;-87
2023/11/02 04:43:34;;;;;;;10.23;1.90;;;9.70;99.90;;;;;;6201661;28;20708;-87
2023/11/02 04:46:35;;;;;;;10.23;1.25;;;9.70;99.90;;;;;;6211957;22;20054;-81
2023/11/02 04:49:37;;;;;;;7.35;1.35;;;9.70;99.90;;;;;;6194928;28;20097;-82
2023/11/02 04:52:39;;;;;;;9.77;1.50;;;9.70;99.90;;;;;;6195298;28;20054;-82
2023/11/02 04:55:41;;;;;;;10.30;1.70;;;9.70;99.90;;;;;;6185040;28;20054;-83
2023/11/02 04:58:42;;;;;;;16.48;2.45;;;9.80;99.90;;;;;;6192111;28;20082;-83
2023/11/02 05:01:48;;;;;;;14.15;1.88;;;9.90;99.90;;;;;;6188903;28;20539;-82
2023/11/02 05:04:50;;;;;;;17.08;2.13;;;9.90;99.90;;;;;;6192551;28;20057;-82
2023/11/02 05:07:52;;;;;;;15.32;2.45;;;10.00;99.90;;;;;;6193758;28;20054;-82
2023/11/02 05:10:53;;;;;;;10.65;2.00;;;10.00;99.90;;;;;;6195811;28;20058;-82
2023/11/02 05:13:55;;;;;;;12.93;2.70;;;10.10;99.90;;;;;;6193370;28;20061;-83
2023/11/02 05:16:57;;;;;;;16.13;2.53;;;10.30;99.90;;;;;;6192868;28;20069;-83
2023/11/02 05:19:58;;;;;;;17.48;3.05;;;10.30;99.90;;;;;;6194118;28;20058;-81
2023/11/02 05:23:00;;;;;;;21.05;3.00;;;10.50;99.90;;;;;;6195139;28;20055;-81
2023/11/02 05:26:01;;;;;;;22.17;3.03;;;10.50;99.90;;;;;;6196245;28;20529;-83
2023/11/02 05:29:04;;;;;;;20.38;3.08;;;10.50;99.90;;;;;;6192456;28;20077;-83
2023/11/02 05:32:06;;;;;;;17.10;2.70;;;10.50;99.90;;;;;;6195497;28;20418;-81
2023/11/02 05:35:09;;;;;;;16.48;2.40;;;10.50;99.90;;;;;;6196072;28;20428;-80
2023/11/02 05:38:11;;;;;;;13.55;2.50;;;10.50;99.90;;;;;;6195792;28;20062;-81
2023/11/02 05:41:12;;;;;;;18.27;1.80;;;10.60;99.90;;;;;;6195249;28;20050;-81
2023/11/02 05:44:14;;;;;;;11.38;1.98;;;10.60;99.90;;;;;;6193696;28;20057;-82
2023/11/02 05:47:16;;;;;;;21.75;3.38;;;10.60;99.90;;;;;;6194590;28;20057;-81
2023/11/02 05:50:18;;;;;;;16.85;2.83;;;10.50;99.90;;;;;;6193447;28;20058;-81
2023/11/02 05:53:20;;;;;;;15.80;2.53;;;10.50;99.90;;;;;;6194450;28;20481;-82
2023/11/02 05:56:22;;;;;;;14.40;2.13;;;10.50;99.90;;;;;;6195462;28;20418;-80
2023/11/02 05:59:24;;;;;;;13.95;1.70;;;10.50;99.90;;;;;;6190743;28;20057;-80
2023/11/02 06:02:27;;;;;;;16.52;2.17;;;10.50;99.90;;;;;;6193314;28;20050;-80
2023/11/02 06:05:30;;;;;;;9.10;1.60;;;10.50;99.90;;;;;;6192855;28;20054;-80
2023/11/02 06:08:31;;;;;;;6.78;1.40;;;10.50;99.90;;;;;;6193143;28;20399;-80
2023/11/02 06:11:33;;;;;;;10.02;1.77;;;10.50;99.90;;;;;;6194772;28;20097;-80
2023/11/02 06:14:35;;;;;;;9.30;1.40;;;10.50;99.90;;;;;;6191862;28;20050;-79
2023/11/02 06:17:36;;;;;;;7.88;1.33;;;10.50;99.90;;;;;;6191124;28;20053;-80
2023/11/02 06:20:38;;;;;;;9.90;1.33;;;10.50;99.90;;;;;;6198667;28;20153;-80
2023/11/02 06:23:41;;;;;;;7.97;1.17;;;10.50;99.90;;;;;;6199021;28;20050;-80
2023/11/02 06:26:43;;;;;;;9.70;1.60;;;10.50;99.90;;;;;;6197917;28;20065;-80
2023/11/02 06:29:45;;;;;;;7.20;1.05;;;10.60;99.90;;;;;;6185007;28;20050;-78
2023/11/02 06:32:46;;;;;;;7.60;1.25;;;10.70;99.90;;;;;;6197337;28;20050;-79
2023/11/02 06:35:48;;;;;;;7.65;1.20;;;10.70;99.90;;;;;;6197754;28;20058;-79
2023/11/02 06:38:50;;;;;;;11.27;1.73;;;10.70;99.90;;;;;;6186736;28;20445;-79
2023/11/02 06:41:51;;;;;;;10.40;1.20;;;10.70;99.90;;;;;;6175998;28;20061;-79
2023/11/02 06:44:57;;;;;;;9.10;1.70;;;10.80;99.90;;;;;;6180798;28;20057;-79
2023/11/02 06:47:59;;;;;;;8.15;1.33;;;10.80;99.90;;;;;;6199923;28;20532;-79
2023/11/02 06:51:00;;;;;;;6.80;1.10;;;10.80;99.90;;;;;;6198318;28;20050;-79
2023/11/02 06:54:02;;;;;;;7.88;1.23;;;10.80;99.90;;;;;;6198887;28;20074;-79
2023/11/02 06:57:04;;;;;;;7.72;1.80;;;10.80;99.90;;;;;;6197366;28;20054;-80
2023/11/02 07:00:09;;;;;;;10.13;1.13;;;10.80;99.90;;;;;;6197048;28;20058;-80
2023/11/02 07:03:11;;;;;;;7.72;0.90;;;10.80;99.90;;;;;;6197831;28;20537;-80
2023/11/02 07:06:12;;;;;;;5.93;1.00;;;10.80;99.90;;;;;;6198540;28;20065;-80
2023/11/02 07:09:14;;;;;;;11.15;1.42;;;10.80;99.90;;;;;;6197239;28;20466;-82
2023/11/02 07:12:16;;;;;;;8.38;1.63;;;10.90;99.90;;;;;;6197113;28;20050;-81
2023/11/02 07:15:17;;;;;;;9.10;1.33;;;10.90;99.90;;;;;;6193602;28;20136;-81
2023/11/02 07:18:19;;;;;;;10.23;1.63;;;10.90;99.90;;;;;;6198436;28;20502;-81
2023/11/02 07:21:21;;;;;;;12.02;1.65;;;11.00;99.90;;;;;;6197347;28;20506;-81
2023/11/02 07:24:22;;;;;;;9.52;2.00;;;11.00;99.90;;;;;;6198050;28;20074;-81
2023/11/02 07:27:24;;;;;;;11.07;1.70;;;11.00;99.90;;;;;;6198474;28;20050;-81
2023/11/02 07:30:26;;;;;;;11.15;1.40;;;11.00;99.90;;;;;;6196918;28;20425;-82
2023/11/02 07:33:27;;;;;;;11.38;1.95;;;11.00;99.90;;;;;;6198635;28;20665;-80
2023/11/02 07:36:29;;;;;;;12.88;2.13;;;11.00;99.90;;;;;;6197527;28;20111;-82
2023/11/02 07:39:33;;;;;;;9.68;2.28;;;11.00;99.90;;;;;;6196042;28;20065;-82
2023/11/02 07:42:35;;;;;;;12.05;1.40;;;11.00;99.90;;;;;;6197501;28;20057;-81
2023/11/02 07:45:36;;;;;;;9.70;1.20;;;11.00;99.90;;;;;;6195914;28;20140;-82
2023/11/02 07:48:39;;;;;;;11.13;1.92;;;10.90;99.90;;;;;;6197421;28;20100;-81
2023/11/02 07:51:42;;;;;;;9.98;1.48;;;11.00;99.90;;;;;;6197216;28;20061;-81
2023/11/02 07:54:45;;;;;;;10.05;1.60;;;10.90;99.90;;;;;;6197637;28;20101;-81
2023/11/02 07:57:47;;;;;;;11.98;2.03;;;10.90;99.90;;;;;;6197629;28;20054;-80
2023/11/02 08:00:49;;;;;;;11.75;1.98;;;10.90;99.90;;;;;;6195193;28;20065;-81
2023/11/02 08:03:50;;;;;;;11.30;2.30;;;10.90;99.90;;;;;;6172833;28;20077;-80
2023/11/02 08:06:52;;;;;;;8.05;1.90;;;10.90;99.90;;;;;;6196582;28;20050;-81
2023/11/02 08:09:54;;;;;;;13.52;1.77;;;10.90;99.90;;;;;;6196827;28;20050;-81
2023/11/02 08:12:56;;;;;;;8.32;1.55;;;11.00;99.90;;;;;;6196301;28;20201;-81
2023/11/02 08:15:58;;;;;;;10.50;1.75;;;11.00;99.90;;;;;;6193269;28;20061;-85
2023/11/02 08:18:59;;;;;;;12.00;2.20;;;11.00;99.90;;;;;;6198118;28;20058;-85
2023/11/02 08:22:02;;;;;;;11.48;2.10;;;11.00;99.90;;;;;;6201052;28;20058;-81
2023/11/02 08:25:04;;;;;;;9.25;1.90;;;11.00;99.90;;;;;;6199395;28;20061;-87
2023/11/02 08:28:06;;;;;;;11.05;2.20;;;11.10;99.90;;;;;;6196983;28;20046;-83
2023/11/02 08:31:08;;;;;;;9.77;1.90;;;11.10;99.90;;;;;;6203656;28;20133;-90
2023/11/02 08:34:11;;;;;;;12.18;2.28;;;11.10;99.90;;;;;;6206809;28;20055;-81
2023/11/02 08:37:13;;;;;;;14.52;2.03;;;11.10;99.90;;;;;;6195718;28;20094;-82
2023/11/02 08:40:15;;;;;;;10.73;2.78;;;11.20;99.90;;;;;;6194459;28;20426;-81
2023/11/02 08:43:17;;;;;;;15.07;2.78;;;11.20;99.90;;;;;;6193454;28;20062;-82
2023/11/02 08:46:19;;;;;;;11.63;2.15;;;11.20;99.90;;;;;;6194229;28;20156;-82
2023/11/02 08:49:21;;;;;;;11.13;2.80;;;11.30;99.90;;;;;;6193161;28;20046;-82
2023/11/02 08:52:22;;;;;;;6.60;1.95;;;11.30;99.90;;;;;;6194676;28;20085;-82
2023/11/02 08:55:24;;;;;;;8.63;1.85;;;11.40;99.90;;;;;;6194715;28;20061;-82
2023/11/02 08:58:27;;;;;;;9.07;2.65;;;11.50;99.90;;;;;;6193021;28;20463;-90
2023/11/02 09:01:29;;;;;;;6.72;1.92;;;12.00;99.90;;;;;;6196131;28;20046;-82
2023/11/02 09:04:30;;;;;;;7.45;2.50;;;12.10;99.90;;;;;;6195443;28;20490;-82
2023/11/02 09:07:32;;;;;;;11.38;3.00;;;11.90;99.90;;;;;;6194698;28;20050;-83
2023/11/02 09:10:34;;;;;;;12.20;3.92;;;12.10;99.90;;;;;;6195553;28;20050;-81
2023/11/02 09:13:35;;;;;;;11.00;4.10;;;12.10;99.90;;;;;;6190594;28;20054;-80
2023/11/02 09:16:37;;;;;;;7.78;2.92;;;12.10;99.90;;;;;;6193833;28;20050;-81
2023/11/02 09:19:39;;;;;;;11.43;3.90;;;12.00;99.90;;;;;;6193900;28;20057;-81
2023/11/02 09:22:40;;;;;;;9.68;3.50;;;12.00;99.90;;;;;;6198363;28;20577;-82
2023/11/02 09:25:42;;;;;;;8.38;3.33;;;11.90;99.90;;;;;;6195163;28;20141;-81
2023/11/02 09:28:43;;;;;;;11.73;3.72;;;11.90;99.90;;;;;;6194148;28;20065;-82
2023/11/02 09:31:45;;;;;;;8.10;3.08;;;11.90;99.90;;;;;;6197608;28;20434;-80
2023/11/02 09:35:03;;;;;;;6.88;2.90;;;11.80;99.90;;;;;;6171712;28;20348;-79
2023/11/02 09:38:04;;;;;;;8.25;3.22;;;11.70;99.90;;;;;;6192889;28;20061;-79
2023/11/02 09:41:06;;;;;;;6.10;2.97;;;11.80;99.90;;;;;;6194908;28;20716;-79
2023/11/02 09:44:08;;;;;;;10.25;3.28;;;11.70;99.90;;;;;;6192652;28;20061;-80
2023/11/02 09:47:10;;;;;;;12.38;3.03;;;11.60;99.90;;;;;;6194663;28;20058;-80
2023/11/02 09:50:12;;;;;;;7.82;1.92;;;11.60;99.90;;;;;;6194911;28;20054;-81
2023/11/02 09:53:14;;;;;;;5.50;1.90;;;11.60;99.90;;;;;;6193780;28;20061;-80
2023/11/02 09:56:16;;;;;;;7.47;2.10;;;11.60;99.90;;;;;;6194718;28;20050;-79
2023/11/02 09:59:18;;;;;;;4.53;1.95;;;11.60;99.90;;;;;;6191515;28;20077;-81
2023/11/02 10:02:20;;;;;;;8.02;1.65;;;11.60;99.90;;;;;;6194011;28;20393;-81
2023/11/02 10:05:24;;;;;;;5.93;1.90;;;11.60;99.90;;;;;;6194478;28;20058;-81
2023/11/02 10:08:26;;;;;;;3.55;1.20;;;11.50;99.90;;;;;;6197208;28;20058;-87
2023/11/02 10:11:27;;;;;;;6.75;2.13;;;11.50;99.90;;;;;;6198118;28;20061;-88
2023/11/02 10:14:31;;;;;;;4.43;1.55;;;11.50;99.90;;;;;;6200792;28;20050;-92
2023/11/02 10:17:33;;;;;;;3.38;1.17;;;11.60;99.90;;;;;;6211706;28;20054;-90
2023/11/02 10:20:35;;;;;;;6.57;1.60;;;11.60;99.90;;;;;;6207110;28;20054;-89
2023/11/02 10:23:37;;;;;;;3.75;1.10;;;11.60;99.90;;;;;;6203091;28;20398;-83
2023/11/02 10:26:40;;;;;;;2.30;1.00;;;11.70;99.90;;;;;;6181770;28;20081;-88
2023/11/02 10:29:45;;;;;;;3.65;1.30;;;11.80;99.90;;;;;;6201556;28;20050;-87
2023/11/02 10:32:46;;;;;;;3.92;1.35;;;11.80;99.90;;;;;;6202235;28;20058;-86
2023/11/02 10:35:48;;;;;;;4.07;1.50;;;11.80;99.90;;;;;;6204949;28;20049;-86
2023/11/02 10:38:50;;;;;;;3.72;1.40;;;11.80;99.90;;;;;;6195015;28;20069;-85
2023/11/02 10:41:51;;;;;;;4.43;1.40;;;11.70;99.90;;;;;;6196404;28;20073;-87
2023/11/02 10:44:53;;;;;;;5.13;1.55;;;11.50;99.90;;;;;;6195383;28;20087;-87
2023/11/02 10:47:55;;;;;;;4.95;1.58;;;11.60;99.90;;;;;;6195953;28;20054;-82
2023/11/02 10:50:57;;;;;;;5.15;1.50;;;11.50;99.90;;;;;;6193822;28;20050;-83
2023/11/02 10:54:00;;;;;;;5.45;1.55;;;11.40;99.90;;;;;;6194674;28;20144;-82
2023/11/02 10:57:01;;;;;;;6.65;1.70;;;11.30;99.90;;;;;;6194036;28;20050;-82
2023/11/02 11:00:07;;;;;;;4.78;1.60;;;11.30;99.90;;;;;;6192670;28;20058;-81
2023/11/02 11:03:10;;;;;;;4.88;2.00;;;11.30;99.90;;;;;;6198906;28;20049;-88
2023/11/02 11:06:12;;;;;;;6.65;2.15;;;11.20;99.90;;;;;;6208363;28;20042;-81
2023/11/02 11:09:13;;;;;;;5.03;1.70;;;11.20;99.90;;;;;;6205897;28;20069;-90
2023/11/02 11:12:15;;;;;;;7.38;1.60;;;11.20;99.90;;;;;;6202150;28;20129;-82
2023/11/02 11:15:22;;;;;;;6.18;1.90;;;11.10;99.90;;;;;;6201830;28;20061;-83
2023/11/02 11:18:24;;;;;;;4.07;1.23;;;11.10;99.90;;;;;;6200458;28;20058;-82
2023/11/02 11:21:27;;;;;;;3.20;1.27;;;11.00;99.90;;;;;;6206321;28;20490;-83
2023/11/02 11:24:29;;;;;;;6.45;1.60;;;11.10;99.90;;;;;;6198877;28;20057;-84
2023/11/02 11:27:31;;;;;;;8.98;1.50;;;11.10;99.90;;;;;;6200830;28;20089;-86
2023/11/02 11:30:34;;;;;;;4.80;1.20;;;11.10;99.90;;;;;;6199955;28;20054;-90
2023/11/02 11:33:35;;;;;;;3.92;0.80;;;11.20;99.90;;;;;;6200575;28;20144;-84
2023/11/02 11:36:37;;;;;;;3.72;1.00;;;11.20;99.90;;;;;;6202270;28;20058;-86
2023/11/02 11:39:39;;;;;;;2.55;0.90;;;11.10;99.90;;;;;;6197516;28;20156;-83
2023/11/02 11:42:41;;;;;;;3.72;0.80;;;11.00;99.90;;;;;;6201221;28;20073;-84
2023/11/02 11:45:43;;;;;;;3.25;0.82;;;11.00;99.90;;;;;;6209583;28;20062;-87
2023/11/02 11:48:45;;;;;;;2.38;0.90;;;10.90;99.90;;;;;;6207140;28;20207;-81
2023/11/02 11:51:48;;;;;;;3.35;1.10;;;10.90;99.90;;;;;;6200410;28;20074;-85
2023/11/02 11:54:50;;;;;;;4.13;1.20;;;10.90;99.90;;;;;;6200218;28;20054;-87
2023/11/02 11:57:53;;;;;;;4.95;1.20;;;10.80;99.90;;;;;;6209960;28;20140;-90
2023/11/02 12:00:57;;;;;;;2.95;1.13;;;10.90;99.90;;;;;;6215010;28;20061;-90
2023/11/02 12:03:59;;;;;;;4.70;1.13;;;10.90;99.90;;;;;;6187177;28;20062;-84
2023/11/02 12:07:01;;;;;;;4.88;1.20;;;10.90;99.90;;;;;;6222370;28;20046;-90
2023/11/02 12:10:03;;;;;;;5.28;1.25;;;10.90;99.90;;;;;;6197517;28;20533;-83
2023/11/02 12:13:08;;;;;;;5.40;1.50;;;10.90;99.90;;;;;;6201891;28;20069;-86
2023/11/02 12:16:10;;;;;;;3.95;1.48;;;10.80;99.90;;;;;;6203577;28;20054;-81
2023/11/02 12:19:11;;;;;;;5.22;1.25;;;10.90;99.90;;;;;;6196824;28;20058;-81
2023/11/02 12:22:13;;;;;;;7.10;1.70;;;10.90;99.90;;;;;;6201698;28;20062;-82
2023/11/02 12:25:15;;;;;;;4.75;1.25;;;10.80;99.90;;;;;;6195749;28;20141;-81
2023/11/02 12:28:17;;;;;;;4.90;1.00;;;10.80;99.90;;;;;;6196277;28;20066;-82
2023/11/02 12:31:18;;;;;;;3.33;1.10;;;11.00;99.90;;;;;;6198322;28;20410;-84
2023/11/02 12:34:20;;;;;;;4.22;1.08;;;11.00;99.90;;;;;;6195942;28;20077;-80
2023/11/02 12:37:23;;;;;;;2.72;0.77;;;11.10;99.90;;;;;;6196622;28;20054;-80
2023/11/02 12:40:24;;;;;;;3.72;0.73;;;11.10;99.90;;;;;;6195706;28;20054;-81
2023/11/02 12:43:26;;;;;;;4.03;1.20;;;11.20;99.40;;;;;;6205806;28;20051;-88
2023/11/02 12:46:28;;;;;;;3.63;0.80;;;11.20;99.90;;;;;;6201899;28;20054;-85
2023/11/02 12:49:30;;;;;;;2.60;0.90;;;11.30;99.90;;;;;;6205201;28;20042;-85
2023/11/02 12:52:32;;;;;;;4.25;0.90;;;11.20;99.20;;;;;;6200647;28;20062;-81
2023/11/02 12:55:34;;;;;;;2.15;0.77;;;11.20;98.80;;;;;;6200043;28;20486;-88
2023/11/02 12:58:36;;;;;;;1.98;0.93;;;11.30;99.00;;;;;;6196455;28;20050;-83
2023/11/02 13:01:38;;;;;;;5.22;0.90;;;11.30;98.40;;;;;;6199554;28;20061;-92
2023/11/02 13:04:40;;;;;;;2.70;1.00;;;11.20;97.90;;;;;;6197918;28;20057;-86
2023/11/02 13:07:43;;;;;;;4.25;1.00;;;11.30;99.60;;;;;;6198659;28;20057;-88
2023/11/02 13:10:45;;;;;;;2.83;1.00;;;11.20;99.30;;;;;;6199941;28;20046;-84
2023/11/02 13:13:47;;;;;;;4.15;0.95;;;11.20;98.50;;;;;;6192737;28;20161;-83
2023/11/02 13:16:54;;;;;;;3.95;1.10;;;11.20;99.20;;;;;;6192713;28;20501;-82
2023/11/02 13:19:57;;;;;;;3.30;1.02;;;11.20;99.50;;;;;;6196315;28;20058;-84
2023/11/02 13:22:58;;;;;;;5.75;1.17;;;11.10;99.90;;;;;;6194917;28;20054;-83
2023/11/02 13:26:01;;;;;;;2.15;0.90;;;11.00;99.90;;;;;;6195680;28;20058;-83
2023/11/02 13:29:04;;;;;;;2.15;0.70;;;10.90;99.90;;;;;;6196051;28;20058;-83
2023/11/02 13:32:06;;;;;;;3.67;0.95;;;10.90;99.90;;;;;;6196147;28;20057;-83
2023/11/02 13:35:08;;;;;;;1.85;0.80;;;10.90;99.90;;;;;;6198551;28;20054;-86
2023/11/02 13:38:10;;;;;;;2.17;1.10;;;10.90;99.60;;;;;;6196544;28;20096;-84
2023/11/02 13:41:11;;;;;;;3.13;1.10;;;11.00;99.90;;;;;;6196459;28;20055;-85
2023/11/02 13:44:13;;;;;;;2.80;0.93;;;11.20;99.90;;;;;;6194956;28;20050;-87
2023/11/02 13:47:15;;;;;;;2.17;0.70;;;11.30;99.80;;;;;;6196647;28;20062;-88
2023/11/02 13:50:17;;;;;;;3.13;1.02;;;11.30;98.80;;;;;;6199461;28;20406;-87
2023/11/02 13:53:19;;;;;;;3.17;1.30;;;11.40;99.20;;;;;;6197891;28;20065;-86
2023/11/02 13:56:21;;;;;;;3.22;1.15;;;11.30;98.70;;;;;;6197110;28;20050;-86
2023/11/02 13:59:23;;;;;;;2.97;1.00;;;11.20;98.40;;;;;;6197834;28;20094;-87
2023/11/02 14:02:25;;;;;;;3.35;1.08;;;11.00;99.40;;;;;;6199225;28;20490;-84
2023/11/02 14:05:27;;;;;;;1.35;0.60;;;10.90;99.90;;;;;;6198600;28;20137;-86
2023/11/02 14:08:29;;;;;;;2.70;0.77;;;10.80;99.90;;;;;;6201289;28;20400;-89
2023/11/02 14:11:31;;;;;;;2.10;0.85;;;10.70;99.90;;;;;;6198000;28;20104;-88
2023/11/02 14:14:33;;;;;;;2.35;0.80;;;10.60;99.90;;;;;;6195932;28;20489;-87
2023/11/02 14:17:35;;;;;;;1.88;0.70;;;10.50;99.90;;;;;;6196316;28;20046;-85
2023/11/02 14:20:37;;;;;;;1.83;0.60;;;10.40;99.90;;;;;;6196868;28;20064;-84
2023/11/02 14:23:39;;;;;;;2.58;0.60;;;10.40;99.90;;;;;;6194206;28;20399;-83
2023/11/02 14:26:41;;;;;;;3.15;0.63;;;10.40;99.90;;;;;;6194878;28;20054;-82
2023/11/02 14:29:42;;;;;;;2.55;0.88;;;10.30;99.90;;;;;;6190279;28;20061;-82
2023/11/02 14:32:44;;;;;;;1.60;0.60;;;10.30;99.90;;;;;;6193946;28;20540;-82
2023/11/02 14:35:48;;;;;;;3.03;0.73;;;10.30;99.90;;;;;;6192711;28;20141;-82
2023/11/02 14:38:50;;;;;;;2.28;0.70;;;10.20;99.90;;;;;;6193054;28;20105;-81
2023/11/02 14:41:51;;;;;;;1.75;0.68;;;10.20;99.90;;;;;;6197908;28;20112;-81
2023/11/02 14:44:54;;;;;;;2.38;0.50;;;10.20;99.90;;;;;;6197253;28;20038;-84
2023/11/02 14:47:59;;;;;;;1.92;0.50;;;10.20;99.90;;;;;;6200135;28;20062;-84
2023/11/02 14:51:00;;;;;;;2.15;0.60;;;10.10;99.90;;;;;;6199613;28;20065;-83
2023/11/02 14:54:02;;;;;;;2.33;0.63;;;10.00;99.90;;;;;;6199918;28;20425;-84
2023/11/02 14:57:04;;;;;;;2.63;0.52;;;10.10;99.90;;;;;;6200410;28;20050;-83
2023/11/02 15:00:08;;;;;;;2.25;0.70;;;10.00;99.90;;;;;;6198631;28;20074;-84
2023/11/02 15:03:09;;;;;;;1.33;0.60;;;10.00;99.90;;;;;;6200621;28;20058;-84
2023/11/02 15:06:12;;;;;;;1.30;0.50;;;10.00;99.90;;;;;;6204937;28;20061;-83
2023/11/02 15:09:14;;;;;;;2.42;0.70;;;10.00;99.90;;;;;;6211704;28;20053;-84
2023/11/02 15:12:17;;;;;;;2.60;0.60;;;9.90;99.90;;;;;;6206539;28;20085;-85
2023/11/02 15:15:19;;;;;;;1.08;0.43;;;9.90;99.90;;;;;;6194974;28;20780;-85
2023/11/02 15:18:21;;;;;;;2.05;0.55;;;9.80;99.90;;;;;;6199836;28;20050;-85
2023/11/02 15:22:37;;;;;;;;;;;9.80;99.90;;;;;;6291331;28;20399;-85
2023/11/02 15:25:39;;;;;;;2.10;0.70;;;10.00;99.90;;;;;;6314698;28;19972;-84
2023/11/02 15:28:40;;;;;;;1.83;0.55;;;9.80;99.90;;;;;;6291377;28;20055;-84
2023/11/02 15:31:42;;;;;;;2.28;0.60;;;9.70;99.90;;;;;;6289829;28;20091;-84
2023/11/02 15:34:45;;;;;;;4.55;0.70;;;9.70;99.90;;;;;;6313443;28;20078;-83
2023/11/02 15:37:47;;;;;;;2.97;0.60;;;9.70;99.90;;;;;;6289648;28;20067;-83
2023/11/02 15:40:48;;;;;;;2.95;0.80;;;9.60;99.90;;;;;;6312062;28;20576;-84
2023/11/02 15:43:53;;;;;;;3.28;0.70;;;9.60;99.90;;;;;;6295392;28;20067;-83
2023/11/02 15:46:55;;;;;;;6.45;0.80;;;9.60;99.90;;;;;;6290136;28;20060;-84